sensor_id;sensor_type;location;lat;lon;timestamp;P1;durP1;ratioP1;P2;durP2;ratioP2
82950;SDS011;72737;53.332;6.514;2024-01-16T00:02:09;5.85;;;1.15;;
82950;SDS011;72737;53.332;6.514;2024-01-16T00:04:38;2.92;;;0.75;;
82950;SDS011;72737;53.332;6.514;2024-01-16T00:07:04;4.50;;;1.00;;
82950;SDS011;72737;53.332;6.514;2024-01-16T00:09:32;5.13;;;1.25;;
82950;SDS011;72737;53.332;6.514;2024-01-16T00:11:58;4.63;;;1.20;;
82950;SDS011;72737;53.332;6.514;2024-01-16T00:14:23;3.70;;;1.10;;
82950;SDS011;72737;53.332;6.514;2024-01-16T00:16:49;3.17;;;1.17;;
82950;SDS011;72737;53.332;6.514;2024-01-16T00:19:14;4.35;;;1.00;;
82950;SDS011;72737;53.332;6.514;2024-01-16T00:21:43;2.20;;;0.80;;
82950;SDS011;72737;53.332;6.514;2024-01-16T00:24:13;3.13;;;0.90;;
82950;SDS011;72737;53.332;6.514;2024-01-16T00:26:39;2.97;;;0.90;;
82950;SDS011;72737;53.332;6.514;2024-01-16T00:29:04;2.40;;;0.77;;
82950;SDS011;72737;53.332;6.514;2024-01-16T00:31:30;4.97;;;0.98;;
82950;SDS011;72737;53.332;6.514;2024-01-16T00:33:55;1.83;;;0.70;;
82950;SDS011;72737;53.332;6.514;2024-01-16T00:36:20;3.88;;;0.93;;
82950;SDS011;72737;53.332;6.514;2024-01-16T00:38:46;3.20;;;0.90;;
82950;SDS011;72737;53.332;6.514;2024-01-16T00:41:14;3.35;;;0.90;;
82950;SDS011;72737;53.332;6.514;2024-01-16T00:43:40;3.60;;;0.85;;
82950;SDS011;72737;53.332;6.514;2024-01-16T00:46:06;2.90;;;0.80;;
82950;SDS011;72737;53.332;6.514;2024-01-16T00:48:32;4.45;;;0.90;;
82950;SDS011;72737;53.332;6.514;2024-01-16T00:50:57;3.92;;;0.85;;
82950;SDS011;72737;53.332;6.514;2024-01-16T00:53:23;1.92;;;0.70;;
82950;SDS011;72737;53.332;6.514;2024-01-16T00:55:48;3.42;;;1.00;;
82950;SDS011;72737;53.332;6.514;2024-01-16T00:58:13;2.83;;;0.88;;
82950;SDS011;72737;53.332;6.514;2024-01-16T01:00:39;3.42;;;0.90;;
82950;SDS011;72737;53.332;6.514;2024-01-16T01:03:04;2.90;;;1.00;;
82950;SDS011;72737;53.332;6.514;2024-01-16T01:05:30;4.22;;;1.20;;
82950;SDS011;72737;53.332;6.514;2024-01-16T01:07:55;2.38;;;0.88;;
82950;SDS011;72737;53.332;6.514;2024-01-16T01:10:21;3.20;;;1.05;;
82950;SDS011;72737;53.332;6.514;2024-01-16T01:12:46;4.53;;;0.80;;
82950;SDS011;72737;53.332;6.514;2024-01-16T01:15:12;3.67;;;0.82;;
82950;SDS011;72737;53.332;6.514;2024-01-16T01:17:38;3.40;;;0.70;;
82950;SDS011;72737;53.332;6.514;2024-01-16T01:20:04;3.70;;;1.10;;
82950;SDS011;72737;53.332;6.514;2024-01-16T01:22:31;3.40;;;0.98;;
82950;SDS011;72737;53.332;6.514;2024-01-16T01:24:56;2.22;;;0.75;;
82950;SDS011;72737;53.332;6.514;2024-01-16T01:27:21;3.42;;;0.82;;
82950;SDS011;72737;53.332;6.514;2024-01-16T01:29:47;3.85;;;1.00;;
82950;SDS011;72737;53.332;6.514;2024-01-16T01:32:12;2.70;;;0.77;;
82950;SDS011;72737;53.332;6.514;2024-01-16T01:34:38;2.00;;;0.85;;
82950;SDS011;72737;53.332;6.514;2024-01-16T01:37:06;3.20;;;1.00;;
82950;SDS011;72737;53.332;6.514;2024-01-16T01:39:32;3.88;;;1.10;;
82950;SDS011;72737;53.332;6.514;2024-01-16T01:41:57;4.45;;;0.88;;
82950;SDS011;72737;53.332;6.514;2024-01-16T01:44:22;4.15;;;1.15;;
82950;SDS011;72737;53.332;6.514;2024-01-16T01:46:49;3.55;;;0.68;;
82950;SDS011;72737;53.332;6.514;2024-01-16T01:49:15;3.13;;;0.82;;
82950;SDS011;72737;53.332;6.514;2024-01-16T01:51:41;1.20;;;0.70;;
82950;SDS011;72737;53.332;6.514;2024-01-16T01:54:08;3.38;;;0.80;;
82950;SDS011;72737;53.332;6.514;2024-01-16T01:56:35;2.65;;;0.80;;
82950;SDS011;72737;53.332;6.514;2024-01-16T01:59:00;2.67;;;0.75;;
82950;SDS011;72737;53.332;6.514;2024-01-16T02:01:28;3.25;;;0.70;;
82950;SDS011;72737;53.332;6.514;2024-01-16T02:06:21;3.88;;;0.80;;
82950;SDS011;72737;53.332;6.514;2024-01-16T02:08:47;3.30;;;1.00;;
82950;SDS011;72737;53.332;6.514;2024-01-16T02:11:12;3.22;;;0.90;;
82950;SDS011;72737;53.332;6.514;2024-01-16T02:13:38;3.53;;;1.33;;
82950;SDS011;72737;53.332;6.514;2024-01-16T02:16:03;2.72;;;0.88;;
82950;SDS011;72737;53.332;6.514;2024-01-16T02:18:30;3.10;;;0.73;;
82950;SDS011;72737;53.332;6.514;2024-01-16T02:20:57;3.03;;;0.93;;
82950;SDS011;72737;53.332;6.514;2024-01-16T02:23:28;3.35;;;0.75;;
82950;SDS011;72737;53.332;6.514;2024-01-16T02:25:55;3.13;;;0.80;;
82950;SDS011;72737;53.332;6.514;2024-01-16T02:28:20;2.55;;;0.90;;
82950;SDS011;72737;53.332;6.514;2024-01-16T02:30:46;3.95;;;1.00;;
82950;SDS011;72737;53.332;6.514;2024-01-16T02:33:11;3.10;;;0.88;;
82950;SDS011;72737;53.332;6.514;2024-01-16T02:35:37;2.47;;;0.60;;
82950;SDS011;72737;53.332;6.514;2024-01-16T02:38:02;3.22;;;0.68;;
82950;SDS011;72737;53.332;6.514;2024-01-16T02:40:28;4.30;;;0.90;;
82950;SDS011;72737;53.332;6.514;2024-01-16T02:42:53;4.00;;;1.05;;
82950;SDS011;72737;53.332;6.514;2024-01-16T02:45:19;2.35;;;0.70;;
82950;SDS011;72737;53.332;6.514;2024-01-16T02:47:45;3.97;;;0.90;;
82950;SDS011;72737;53.332;6.514;2024-01-16T02:50:10;4.28;;;0.95;;
82950;SDS011;72737;53.332;6.514;2024-01-16T02:52:36;3.38;;;1.00;;
82950;SDS011;72737;53.332;6.514;2024-01-16T02:55:01;3.58;;;0.80;;
82950;SDS011;72737;53.332;6.514;2024-01-16T02:57:26;2.67;;;0.77;;
82950;SDS011;72737;53.332;6.514;2024-01-16T02:59:52;3.75;;;0.82;;
82950;SDS011;72737;53.332;6.514;2024-01-16T03:02:17;4.03;;;0.80;;
82950;SDS011;72737;53.332;6.514;2024-01-16T03:04:42;2.30;;;0.70;;
82950;SDS011;72737;53.332;6.514;2024-01-16T03:07:08;2.65;;;0.70;;
82950;SDS011;72737;53.332;6.514;2024-01-16T03:09:33;2.63;;;0.90;;
82950;SDS011;72737;53.332;6.514;2024-01-16T03:11:59;2.70;;;0.82;;
82950;SDS011;72737;53.332;6.514;2024-01-16T03:14:24;2.80;;;0.60;;
82950;SDS011;72737;53.332;6.514;2024-01-16T03:16:50;2.65;;;0.52;;
82950;SDS011;72737;53.332;6.514;2024-01-16T03:19:15;3.67;;;0.70;;
82950;SDS011;72737;53.332;6.514;2024-01-16T03:21:41;4.80;;;0.75;;
82950;SDS011;72737;53.332;6.514;2024-01-16T03:24:07;2.72;;;0.80;;
82950;SDS011;72737;53.332;6.514;2024-01-16T03:26:35;2.90;;;0.88;;
82950;SDS011;72737;53.332;6.514;2024-01-16T03:29:02;2.08;;;0.60;;
82950;SDS011;72737;53.332;6.514;2024-01-16T03:31:28;4.32;;;0.70;;
82950;SDS011;72737;53.332;6.514;2024-01-16T03:33:53;2.90;;;0.80;;
82950;SDS011;72737;53.332;6.514;2024-01-16T03:36:18;4.45;;;0.95;;
82950;SDS011;72737;53.332;6.514;2024-01-16T03:38:44;3.63;;;0.93;;
82950;SDS011;72737;53.332;6.514;2024-01-16T03:41:12;2.15;;;0.70;;
82950;SDS011;72737;53.332;6.514;2024-01-16T03:43:39;2.92;;;0.73;;
82950;SDS011;72737;53.332;6.514;2024-01-16T03:46:05;2.72;;;0.60;;
82950;SDS011;72737;53.332;6.514;2024-01-16T03:48:30;3.67;;;0.90;;
82950;SDS011;72737;53.332;6.514;2024-01-16T03:50:56;3.45;;;0.80;;
82950;SDS011;72737;53.332;6.514;2024-01-16T03:53:21;2.35;;;0.60;;
82950;SDS011;72737;53.332;6.514;2024-01-16T03:55:47;1.83;;;0.63;;
82950;SDS011;72737;53.332;6.514;2024-01-16T04:00:40;1.70;;;0.40;;
82950;SDS011;72737;53.332;6.514;2024-01-16T04:03:05;1.55;;;0.57;;
82950;SDS011;72737;53.332;6.514;2024-01-16T04:05:32;5.35;;;0.98;;
82950;SDS011;72737;53.332;6.514;2024-01-16T04:07:57;4.15;;;0.90;;
82950;SDS011;72737;53.332;6.514;2024-01-16T04:10:23;2.28;;;0.57;;
82950;SDS011;72737;53.332;6.514;2024-01-16T04:12:48;3.30;;;0.80;;
82950;SDS011;72737;53.332;6.514;2024-01-16T04:15:14;2.90;;;0.80;;
82950;SDS011;72737;53.332;6.514;2024-01-16T04:17:39;3.80;;;1.17;;
82950;SDS011;72737;53.332;6.514;2024-01-16T04:20:05;2.95;;;0.70;;
82950;SDS011;72737;53.332;6.514;2024-01-16T04:22:32;3.42;;;0.70;;
82950;SDS011;72737;53.332;6.514;2024-01-16T04:24:57;2.10;;;0.65;;
82950;SDS011;72737;53.332;6.514;2024-01-16T04:27:23;2.15;;;0.60;;
82950;SDS011;72737;53.332;6.514;2024-01-16T04:29:48;2.00;;;0.50;;
82950;SDS011;72737;53.332;6.514;2024-01-16T04:32:14;1.50;;;0.50;;
82950;SDS011;72737;53.332;6.514;2024-01-16T04:34:39;3.05;;;0.88;;
82950;SDS011;72737;53.332;6.514;2024-01-16T04:37:05;3.67;;;0.80;;
82950;SDS011;72737;53.332;6.514;2024-01-16T04:39:30;3.65;;;0.68;;
82950;SDS011;72737;53.332;6.514;2024-01-16T04:41:56;3.40;;;0.90;;
82950;SDS011;72737;53.332;6.514;2024-01-16T04:44:21;5.30;;;0.80;;
82950;SDS011;72737;53.332;6.514;2024-01-16T04:46:47;3.60;;;0.85;;
82950;SDS011;72737;53.332;6.514;2024-01-16T04:49:12;3.97;;;0.90;;
82950;SDS011;72737;53.332;6.514;2024-01-16T04:51:37;3.67;;;0.80;;
82950;SDS011;72737;53.332;6.514;2024-01-16T04:54:03;3.67;;;0.82;;
82950;SDS011;72737;53.332;6.514;2024-01-16T04:56:28;4.95;;;1.00;;
82950;SDS011;72737;53.332;6.514;2024-01-16T04:58:53;3.35;;;0.80;;
82950;SDS011;72737;53.332;6.514;2024-01-16T05:01:19;5.07;;;0.90;;
82950;SDS011;72737;53.332;6.514;2024-01-16T05:03:44;4.60;;;1.05;;
82950;SDS011;72737;53.332;6.514;2024-01-16T05:06:13;2.15;;;0.60;;
82950;SDS011;72737;53.332;6.514;2024-01-16T05:08:42;3.05;;;0.70;;
82950;SDS011;72737;53.332;6.514;2024-01-16T05:11:08;2.33;;;0.60;;
82950;SDS011;72737;53.332;6.514;2024-01-16T05:13:34;3.92;;;0.90;;
82950;SDS011;72737;53.332;6.514;2024-01-16T05:15:59;3.97;;;0.93;;
82950;SDS011;72737;53.332;6.514;2024-01-16T05:18:25;2.85;;;0.65;;
82950;SDS011;72737;53.332;6.514;2024-01-16T05:20:50;4.57;;;0.80;;
82950;SDS011;72737;53.332;6.514;2024-01-16T05:23:15;3.08;;;0.85;;
82950;SDS011;72737;53.332;6.514;2024-01-16T05:25:41;3.40;;;0.90;;
82950;SDS011;72737;53.332;6.514;2024-01-16T05:28:06;4.07;;;0.80;;
82950;SDS011;72737;53.332;6.514;2024-01-16T05:30:32;3.13;;;0.63;;
82950;SDS011;72737;53.332;6.514;2024-01-16T05:32:58;2.92;;;0.80;;
82950;SDS011;72737;53.332;6.514;2024-01-16T05:35:26;2.97;;;0.65;;
82950;SDS011;72737;53.332;6.514;2024-01-16T05:37:55;2.95;;;0.77;;
82950;SDS011;72737;53.332;6.514;2024-01-16T05:40:21;2.13;;;0.75;;
82950;SDS011;72737;53.332;6.514;2024-01-16T05:42:47;2.92;;;0.73;;
82950;SDS011;72737;53.332;6.514;2024-01-16T05:45:13;2.22;;;0.60;;
82950;SDS011;72737;53.332;6.514;2024-01-16T05:47:39;4.22;;;0.85;;
82950;SDS011;72737;53.332;6.514;2024-01-16T05:50:04;2.25;;;0.60;;
82950;SDS011;72737;53.332;6.514;2024-01-16T05:52:30;3.55;;;0.80;;
82950;SDS011;72737;53.332;6.514;2024-01-16T05:54:55;5.47;;;0.85;;
82950;SDS011;72737;53.332;6.514;2024-01-16T05:57:23;3.95;;;0.82;;
82950;SDS011;72737;53.332;6.514;2024-01-16T05:59:48;3.95;;;0.80;;
82950;SDS011;72737;53.332;6.514;2024-01-16T06:02:14;2.88;;;0.90;;
82950;SDS011;72737;53.332;6.514;2024-01-16T06:04:40;3.90;;;0.80;;
82950;SDS011;72737;53.332;6.514;2024-01-16T06:07:05;3.63;;;0.80;;
82950;SDS011;72737;53.332;6.514;2024-01-16T06:09:32;3.25;;;0.88;;
82950;SDS011;72737;53.332;6.514;2024-01-16T06:11:58;5.70;;;1.00;;
82950;SDS011;72737;53.332;6.514;2024-01-16T06:14:23;4.53;;;0.82;;
82950;SDS011;72737;53.332;6.514;2024-01-16T06:16:48;4.82;;;0.90;;
82950;SDS011;72737;53.332;6.514;2024-01-16T06:21:41;4.22;;;0.82;;
82950;SDS011;72737;53.332;6.514;2024-01-16T06:24:06;3.30;;;0.85;;
82950;SDS011;72737;53.332;6.514;2024-01-16T06:26:32;3.88;;;1.00;;
82950;SDS011;72737;53.332;6.514;2024-01-16T06:28:58;4.63;;;0.85;;
82950;SDS011;72737;53.332;6.514;2024-01-16T06:31:24;4.38;;;0.90;;
82950;SDS011;72737;53.332;6.514;2024-01-16T06:33:51;3.65;;;0.90;;
82950;SDS011;72737;53.332;6.514;2024-01-16T06:36:17;3.97;;;1.00;;
82950;SDS011;72737;53.332;6.514;2024-01-16T06:38:42;3.20;;;0.90;;
82950;SDS011;72737;53.332;6.514;2024-01-16T06:41:08;4.25;;;0.80;;
82950;SDS011;72737;53.332;6.514;2024-01-16T06:43:33;2.67;;;0.60;;
82950;SDS011;72737;53.332;6.514;2024-01-16T06:45:59;3.97;;;1.00;;
82950;SDS011;72737;53.332;6.514;2024-01-16T06:48:24;4.93;;;0.98;;
82950;SDS011;72737;53.332;6.514;2024-01-16T06:50:50;5.05;;;0.90;;
82950;SDS011;72737;53.332;6.514;2024-01-16T06:53:15;5.45;;;1.15;;
82950;SDS011;72737;53.332;6.514;2024-01-16T06:55:41;4.32;;;0.90;;
82950;SDS011;72737;53.332;6.514;2024-01-16T06:58:06;4.07;;;0.80;;
82950;SDS011;72737;53.332;6.514;2024-01-16T07:00:32;2.63;;;0.73;;
82950;SDS011;72737;53.332;6.514;2024-01-16T07:02:57;6.03;;;1.10;;
82950;SDS011;72737;53.332;6.514;2024-01-16T07:05:23;3.92;;;0.88;;
82950;SDS011;72737;53.332;6.514;2024-01-16T07:07:48;3.65;;;1.00;;
82950;SDS011;72737;53.332;6.514;2024-01-16T07:10:14;3.90;;;0.90;;
82950;SDS011;72737;53.332;6.514;2024-01-16T07:12:43;4.55;;;1.27;;
82950;SDS011;72737;53.332;6.514;2024-01-16T07:15:09;4.90;;;1.10;;
82950;SDS011;72737;53.332;6.514;2024-01-16T07:17:35;5.88;;;1.02;;
82950;SDS011;72737;53.332;6.514;2024-01-16T07:20:00;4.28;;;1.20;;
82950;SDS011;72737;53.332;6.514;2024-01-16T07:22:25;4.40;;;1.20;;
82950;SDS011;72737;53.332;6.514;2024-01-16T07:24:52;6.07;;;1.23;;
82950;SDS011;72737;53.332;6.514;2024-01-16T07:27:17;5.60;;;1.13;;
82950;SDS011;72737;53.332;6.514;2024-01-16T07:29:43;5.63;;;1.23;;
82950;SDS011;72737;53.332;6.514;2024-01-16T07:32:08;5.07;;;1.30;;
82950;SDS011;72737;53.332;6.514;2024-01-16T07:34:35;6.40;;;1.60;;
82950;SDS011;72737;53.332;6.514;2024-01-16T07:37:01;4.20;;;1.10;;
82950;SDS011;72737;53.332;6.514;2024-01-16T07:39:26;5.78;;;1.25;;
82950;SDS011;72737;53.332;6.514;2024-01-16T07:41:52;7.93;;;1.40;;
82950;SDS011;72737;53.332;6.514;2024-01-16T07:44:17;6.68;;;1.30;;
82950;SDS011;72737;53.332;6.514;2024-01-16T07:46:42;7.90;;;1.80;;
82950;SDS011;72737;53.332;6.514;2024-01-16T07:49:08;7.53;;;1.40;;
82950;SDS011;72737;53.332;6.514;2024-01-16T07:51:33;5.70;;;1.27;;
82950;SDS011;72737;53.332;6.514;2024-01-16T07:54:05;6.63;;;1.60;;
82950;SDS011;72737;53.332;6.514;2024-01-16T07:56:32;6.38;;;1.42;;
82950;SDS011;72737;53.332;6.514;2024-01-16T07:58:58;6.40;;;1.45;;
82950;SDS011;72737;53.332;6.514;2024-01-16T08:01:23;8.18;;;1.63;;
82950;SDS011;72737;53.332;6.514;2024-01-16T08:03:49;4.47;;;1.35;;
82950;SDS011;72737;53.332;6.514;2024-01-16T08:06:15;6.82;;;1.25;;
82950;SDS011;72737;53.332;6.514;2024-01-16T08:08:40;6.93;;;1.70;;
82950;SDS011;72737;53.332;6.514;2024-01-16T08:11:06;7.55;;;1.40;;
82950;SDS011;72737;53.332;6.514;2024-01-16T08:13:32;9.18;;;1.70;;
82950;SDS011;72737;53.332;6.514;2024-01-16T08:15:58;6.50;;;1.55;;
82950;SDS011;72737;53.332;6.514;2024-01-16T08:18:23;8.85;;;2.00;;
82950;SDS011;72737;53.332;6.514;2024-01-16T08:20:48;9.13;;;2.00;;
82950;SDS011;72737;53.332;6.514;2024-01-16T08:23:14;8.95;;;1.75;;
82950;SDS011;72737;53.332;6.514;2024-01-16T08:25:39;8.32;;;1.80;;
82950;SDS011;72737;53.332;6.514;2024-01-16T08:28:04;7.53;;;1.50;;
82950;SDS011;72737;53.332;6.514;2024-01-16T08:30:30;8.85;;;1.88;;
82950;SDS011;72737;53.332;6.514;2024-01-16T08:32:55;9.90;;;2.28;;
82950;SDS011;72737;53.332;6.514;2024-01-16T08:35:21;6.80;;;1.60;;
82950;SDS011;72737;53.332;6.514;2024-01-16T08:37:47;10.07;;;1.92;;
82950;SDS011;72737;53.332;6.514;2024-01-16T08:40:13;6.05;;;1.63;;
82950;SDS011;72737;53.332;6.514;2024-01-16T08:42:38;6.97;;;1.95;;
82950;SDS011;72737;53.332;6.514;2024-01-16T08:45:04;9.02;;;2.20;;
82950;SDS011;72737;53.332;6.514;2024-01-16T08:47:30;6.85;;;2.00;;
82950;SDS011;72737;53.332;6.514;2024-01-16T08:49:56;9.45;;;2.10;;
82950;SDS011;72737;53.332;6.514;2024-01-16T08:52:21;6.88;;;1.90;;
82950;SDS011;72737;53.332;6.514;2024-01-16T08:54:47;8.85;;;2.15;;
82950;SDS011;72737;53.332;6.514;2024-01-16T08:57:13;10.00;;;2.33;;
82950;SDS011;72737;53.332;6.514;2024-01-16T08:59:39;6.82;;;1.88;;
82950;SDS011;72737;53.332;6.514;2024-01-16T09:02:07;6.50;;;1.73;;
82950;SDS011;72737;53.332;6.514;2024-01-16T09:04:33;7.35;;;1.70;;
82950;SDS011;72737;53.332;6.514;2024-01-16T09:06:59;6.35;;;1.90;;
82950;SDS011;72737;53.332;6.514;2024-01-16T09:09:24;7.45;;;1.88;;
82950;SDS011;72737;53.332;6.514;2024-01-16T09:11:50;7.07;;;2.03;;
82950;SDS011;72737;53.332;6.514;2024-01-16T09:14:15;5.82;;;2.08;;
82950;SDS011;72737;53.332;6.514;2024-01-16T09:16:41;8.55;;;1.83;;
82950;SDS011;72737;53.332;6.514;2024-01-16T09:19:07;7.43;;;1.70;;
82950;SDS011;72737;53.332;6.514;2024-01-16T09:21:34;6.63;;;1.83;;
82950;SDS011;72737;53.332;6.514;2024-01-16T09:23:59;5.50;;;1.70;;
82950;SDS011;72737;53.332;6.514;2024-01-16T09:26:25;5.43;;;1.60;;
82950;SDS011;72737;53.332;6.514;2024-01-16T09:28:50;6.85;;;1.73;;
82950;SDS011;72737;53.332;6.514;2024-01-16T09:31:15;7.28;;;1.60;;
82950;SDS011;72737;53.332;6.514;2024-01-16T09:33:41;6.10;;;1.80;;
82950;SDS011;72737;53.332;6.514;2024-01-16T09:36:08;6.85;;;1.60;;
82950;SDS011;72737;53.332;6.514;2024-01-16T09:38:34;7.15;;;1.88;;
82950;SDS011;72737;53.332;6.514;2024-01-16T09:40:59;6.43;;;1.70;;
82950;SDS011;72737;53.332;6.514;2024-01-16T09:43:28;7.25;;;1.50;;
82950;SDS011;72737;53.332;6.514;2024-01-16T09:45:54;7.75;;;1.50;;
82950;SDS011;72737;53.332;6.514;2024-01-16T09:50:46;7.60;;;2.20;;
82950;SDS011;72737;53.332;6.514;2024-01-16T09:53:12;4.95;;;1.30;;
82950;SDS011;72737;53.332;6.514;2024-01-16T09:55:37;6.75;;;1.77;;
82950;SDS011;72737;53.332;6.514;2024-01-16T09:58:03;5.63;;;1.48;;
82950;SDS011;72737;53.332;6.514;2024-01-16T10:00:31;8.55;;;1.98;;
82950;SDS011;72737;53.332;6.514;2024-01-16T10:02:58;7.30;;;1.40;;
82950;SDS011;72737;53.332;6.514;2024-01-16T10:05:24;5.72;;;1.55;;
82950;SDS011;72737;53.332;6.514;2024-01-16T10:07:50;6.18;;;1.48;;
82950;SDS011;72737;53.332;6.514;2024-01-16T10:10:17;6.20;;;1.58;;
82950;SDS011;72737;53.332;6.514;2024-01-16T10:12:43;6.10;;;1.23;;
82950;SDS011;72737;53.332;6.514;2024-01-16T10:15:09;5.63;;;1.65;;
82950;SDS011;72737;53.332;6.514;2024-01-16T10:17:35;5.15;;;1.35;;
82950;SDS011;72737;53.332;6.514;2024-01-16T10:20:04;5.68;;;1.58;;
82950;SDS011;72737;53.332;6.514;2024-01-16T10:22:30;6.25;;;1.48;;
82950;SDS011;72737;53.332;6.514;2024-01-16T10:25:09;4.50;;;1.30;;
82950;SDS011;72737;53.332;6.514;2024-01-16T10:27:37;4.07;;;1.20;;
82950;SDS011;72737;53.332;6.514;2024-01-16T10:30:04;4.78;;;1.17;;
82950;SDS011;72737;53.332;6.514;2024-01-16T10:32:34;7.18;;;1.42;;
82950;SDS011;72737;53.332;6.514;2024-01-16T10:35:04;8.07;;;1.52;;
82950;SDS011;72737;53.332;6.514;2024-01-16T10:40:15;3.67;;;1.23;;
82950;SDS011;72737;53.332;6.514;2024-01-16T10:43:00;5.25;;;1.33;;
82950;SDS011;72737;53.332;6.514;2024-01-16T10:45:26;4.93;;;1.10;;
82950;SDS011;72737;53.332;6.514;2024-01-16T10:48:05;6.05;;;1.48;;
82950;SDS011;72737;53.332;6.514;2024-01-16T10:50:32;4.88;;;1.30;;
82950;SDS011;72737;53.332;6.514;2024-01-16T10:53:04;4.22;;;1.00;;
82950;SDS011;72737;53.332;6.514;2024-01-16T10:58:02;4.13;;;1.00;;
82950;SDS011;72737;53.332;6.514;2024-01-16T11:00:28;4.75;;;1.20;;
82950;SDS011;72737;53.332;6.514;2024-01-16T11:02:58;3.70;;;0.95;;
82950;SDS011;72737;53.332;6.514;2024-01-16T11:05:33;4.50;;;1.20;;
82950;SDS011;72737;53.332;6.514;2024-01-16T11:07:59;3.90;;;1.05;;
82950;SDS011;72737;53.332;6.514;2024-01-16T11:10:26;4.63;;;1.27;;
82950;SDS011;72737;53.332;6.514;2024-01-16T11:12:52;5.25;;;1.30;;
82950;SDS011;72737;53.332;6.514;2024-01-16T11:15:19;3.83;;;1.17;;
82950;SDS011;72737;53.332;6.514;2024-01-16T11:17:45;3.33;;;0.98;;
82950;SDS011;72737;53.332;6.514;2024-01-16T11:20:11;5.10;;;1.17;;
82950;SDS011;72737;53.332;6.514;2024-01-16T11:22:39;3.92;;;1.33;;
82950;SDS011;72737;53.332;6.514;2024-01-16T11:27:42;9.20;;;1.48;;
82950;SDS011;72737;53.332;6.514;2024-01-16T11:30:08;4.78;;;1.08;;
82950;SDS011;72737;53.332;6.514;2024-01-16T11:35:01;3.57;;;1.20;;
82950;SDS011;72737;53.332;6.514;2024-01-16T11:37:28;3.05;;;1.00;;
82950;SDS011;72737;53.332;6.514;2024-01-16T11:42:42;3.65;;;1.00;;
82950;SDS011;72737;53.332;6.514;2024-01-16T11:45:47;3.95;;;1.20;;
82950;SDS011;72737;53.332;6.514;2024-01-16T11:48:07;4.15;;;1.13;;
82950;SDS011;72737;53.332;6.514;2024-01-16T11:50:36;4.45;;;1.20;;
82950;SDS011;72737;53.332;6.514;2024-01-16T11:53:01;2.63;;;1.10;;
82950;SDS011;72737;53.332;6.514;2024-01-16T12:00:55;3.50;;;1.33;;
82950;SDS011;72737;53.332;6.514;2024-01-16T12:03:22;3.67;;;1.45;;
82950;SDS011;72737;53.332;6.514;2024-01-16T12:05:57;3.10;;;1.30;;
82950;SDS011;72737;53.332;6.514;2024-01-16T12:08:23;4.13;;;1.40;;
82950;SDS011;72737;53.332;6.514;2024-01-16T12:10:49;4.22;;;1.55;;
82950;SDS011;72737;53.332;6.514;2024-01-16T12:13:14;4.22;;;1.33;;
82950;SDS011;72737;53.332;6.514;2024-01-16T12:15:40;4.40;;;1.60;;
82950;SDS011;72737;53.332;6.514;2024-01-16T12:18:06;3.55;;;1.30;;
82950;SDS011;72737;53.332;6.514;2024-01-16T12:20:33;3.60;;;1.48;;
82950;SDS011;72737;53.332;6.514;2024-01-16T12:23:03;3.83;;;1.40;;
82950;SDS011;72737;53.332;6.514;2024-01-16T12:25:33;3.60;;;1.50;;
82950;SDS011;72737;53.332;6.514;2024-01-16T12:28:03;4.07;;;1.48;;
82950;SDS011;72737;53.332;6.514;2024-01-16T12:30:33;3.60;;;1.40;;
82950;SDS011;72737;53.332;6.514;2024-01-16T12:33:07;4.50;;;1.52;;
82950;SDS011;72737;53.332;6.514;2024-01-16T12:35:35;3.97;;;1.50;;
82950;SDS011;72737;53.332;6.514;2024-01-16T12:38:01;5.13;;;1.33;;
82950;SDS011;72737;53.332;6.514;2024-01-16T12:40:28;4.80;;;1.50;;
82950;SDS011;72737;53.332;6.514;2024-01-16T12:42:54;4.15;;;1.30;;
82950;SDS011;72737;53.332;6.514;2024-01-16T12:45:20;5.55;;;1.35;;
82950;SDS011;72737;53.332;6.514;2024-01-16T12:50:20;3.28;;;1.27;;
82950;SDS011;72737;53.332;6.514;2024-01-16T12:52:47;4.80;;;1.48;;
82950;SDS011;72737;53.332;6.514;2024-01-16T12:57:40;3.95;;;1.55;;
82950;SDS011;72737;53.332;6.514;2024-01-16T13:00:22;4.93;;;1.58;;
82950;SDS011;72737;53.332;6.514;2024-01-16T13:02:51;4.82;;;1.50;;
82950;SDS011;72737;53.332;6.514;2024-01-16T13:05:17;5.05;;;1.73;;
82950;SDS011;72737;53.332;6.514;2024-01-16T13:07:43;3.70;;;1.45;;
82950;SDS011;72737;53.332;6.514;2024-01-16T13:10:09;4.15;;;1.20;;
82950;SDS011;72737;53.332;6.514;2024-01-16T13:12:43;3.63;;;1.30;;
82950;SDS011;72737;53.332;6.514;2024-01-16T13:15:09;7.63;;;1.70;;
82950;SDS011;72737;53.332;6.514;2024-01-16T13:20:02;4.45;;;1.35;;
82950;SDS011;72737;53.332;6.514;2024-01-16T13:22:29;3.58;;;1.42;;
82950;SDS011;72737;53.332;6.514;2024-01-16T13:24:55;3.90;;;1.50;;
82950;SDS011;72737;53.332;6.514;2024-01-16T13:27:21;3.80;;;1.20;;
82950;SDS011;72737;53.332;6.514;2024-01-16T13:29:47;4.80;;;1.20;;
82950;SDS011;72737;53.332;6.514;2024-01-16T13:32:12;4.50;;;1.10;;
82950;SDS011;72737;53.332;6.514;2024-01-16T13:34:38;3.50;;;1.27;;
82950;SDS011;72737;53.332;6.514;2024-01-16T13:37:04;3.88;;;1.20;;
82950;SDS011;72737;53.332;6.514;2024-01-16T13:39:29;3.78;;;1.25;;
82950;SDS011;72737;53.332;6.514;2024-01-16T13:42:01;4.00;;;1.20;;
82950;SDS011;72737;53.332;6.514;2024-01-16T13:44:30;4.57;;;1.40;;
82950;SDS011;72737;53.332;6.514;2024-01-16T13:46:56;3.40;;;1.30;;
82950;SDS011;72737;53.332;6.514;2024-01-16T13:49:21;4.05;;;1.30;;
82950;SDS011;72737;53.332;6.514;2024-01-16T13:51:46;5.72;;;1.30;;
82950;SDS011;72737;53.332;6.514;2024-01-16T13:54:12;4.50;;;1.30;;
82950;SDS011;72737;53.332;6.514;2024-01-16T13:56:37;4.47;;;1.20;;
82950;SDS011;72737;53.332;6.514;2024-01-16T13:59:04;2.90;;;1.17;;
82950;SDS011;72737;53.332;6.514;2024-01-16T14:01:29;4.35;;;1.20;;
82950;SDS011;72737;53.332;6.514;2024-01-16T14:03:54;3.83;;;1.23;;
82950;SDS011;72737;53.332;6.514;2024-01-16T14:06:20;3.90;;;1.20;;
82950;SDS011;72737;53.332;6.514;2024-01-16T14:08:45;4.63;;;1.25;;
82950;SDS011;72737;53.332;6.514;2024-01-16T14:11:10;3.38;;;1.10;;
82950;SDS011;72737;53.332;6.514;2024-01-16T14:13:36;3.08;;;1.20;;
82950;SDS011;72737;53.332;6.514;2024-01-16T14:16:02;4.60;;;1.20;;
82950;SDS011;72737;53.332;6.514;2024-01-16T14:18:28;3.35;;;1.10;;
82950;SDS011;72737;53.332;6.514;2024-01-16T14:20:53;3.95;;;1.40;;
82950;SDS011;72737;53.332;6.514;2024-01-16T14:23:18;4.70;;;1.27;;
82950;SDS011;72737;53.332;6.514;2024-01-16T14:25:45;3.33;;;1.20;;
82950;SDS011;72737;53.332;6.514;2024-01-16T14:28:10;3.10;;;1.10;;
82950;SDS011;72737;53.332;6.514;2024-01-16T14:30:37;4.90;;;1.30;;
82950;SDS011;72737;53.332;6.514;2024-01-16T14:33:02;3.50;;;1.10;;
82950;SDS011;72737;53.332;6.514;2024-01-16T14:35:28;3.00;;;0.98;;
82950;SDS011;72737;53.332;6.514;2024-01-16T14:37:53;4.40;;;1.20;;
82950;SDS011;72737;53.332;6.514;2024-01-16T14:40:18;4.82;;;1.48;;
82950;SDS011;72737;53.332;6.514;2024-01-16T14:42:53;3.75;;;1.40;;
82950;SDS011;72737;53.332;6.514;2024-01-16T14:45:22;4.15;;;1.17;;
82950;SDS011;72737;53.332;6.514;2024-01-16T14:47:49;3.78;;;1.25;;
82950;SDS011;72737;53.332;6.514;2024-01-16T14:50:15;5.82;;;1.25;;
82950;SDS011;72737;53.332;6.514;2024-01-16T14:52:43;6.00;;;1.52;;
82950;SDS011;72737;53.332;6.514;2024-01-16T14:55:11;4.10;;;1.35;;
82950;SDS011;72737;53.332;6.514;2024-01-16T14:57:37;3.05;;;1.00;;
82950;SDS011;72737;53.332;6.514;2024-01-16T15:00:12;3.65;;;1.25;;
82950;SDS011;72737;53.332;6.514;2024-01-16T15:02:45;4.38;;;1.35;;
82950;SDS011;72737;53.332;6.514;2024-01-16T15:05:17;3.53;;;1.20;;
82950;SDS011;72737;53.332;6.514;2024-01-16T15:07:44;3.50;;;1.27;;
82950;SDS011;72737;53.332;6.514;2024-01-16T15:10:10;2.85;;;1.15;;
82950;SDS011;72737;53.332;6.514;2024-01-16T15:12:39;4.07;;;1.10;;
82950;SDS011;72737;53.332;6.514;2024-01-16T15:15:08;3.50;;;1.30;;
82950;SDS011;72737;53.332;6.514;2024-01-16T15:17:35;5.03;;;1.35;;
82950;SDS011;72737;53.332;6.514;2024-01-16T15:20:01;4.25;;;1.15;;